sensor_id;sensor_type;location;lat;lon;timestamp;temperature;humidity
74511;DHT22;62991;50.040;18.400;2023-07-13T00:00:07;22.50;71.60
74511;DHT22;62991;50.040;18.400;2023-07-13T00:03:10;22.50;71.00
74511;DHT22;62991;50.040;18.400;2023-07-13T00:06:13;22.30;71.20
74511;DHT22;62991;50.040;18.400;2023-07-13T00:09:15;22.20;71.60
74511;DHT22;62991;50.040;18.400;2023-07-13T00:15:29;22.30;72.00
74511;DHT22;62991;50.040;18.400;2023-07-13T00:18:32;22.50;72.10
74511;DHT22;62991;50.040;18.400;2023-07-13T00:21:32;22.60;71.50
74511;DHT22;62991;50.040;18.400;2023-07-13T00:24:33;22.60;71.80
74511;DHT22;62991;50.040;18.400;2023-07-13T00:27:36;22.40;71.90
74511;DHT22;62991;50.040;18.400;2023-07-13T00:30:37;22.20;73.00
74511;DHT22;62991;50.040;18.400;2023-07-13T00:33:38;22.10;73.20
74511;DHT22;62991;50.040;18.400;2023-07-13T00:36:38;22.00;73.70
74511;DHT22;62991;50.040;18.400;2023-07-13T00:39:39;22.20;73.90
74511;DHT22;62991;50.040;18.400;2023-07-13T00:42:40;22.30;73.60
74511;DHT22;62991;50.040;18.400;2023-07-13T00:48:47;22.50;73.20
74511;DHT22;62991;50.040;18.400;2023-07-13T00:54:57;22.60;72.60
74511;DHT22;62991;50.040;18.400;2023-07-13T00:57:58;22.40;72.10
74511;DHT22;62991;50.040;18.400;2023-07-13T01:00:59;21.50;75.00
74511;DHT22;62991;50.040;18.400;2023-07-13T01:04:00;21.20;76.30
74511;DHT22;62991;50.040;18.400;2023-07-13T01:07:00;21.00;76.90
74511;DHT22;62991;50.040;18.400;2023-07-13T01:10:02;21.00;77.30
74511;DHT22;62991;50.040;18.400;2023-07-13T01:13:02;21.10;76.00
74511;DHT22;62991;50.040;18.400;2023-07-13T01:16:13;21.10;76.00
74511;DHT22;62991;50.040;18.400;2023-07-13T01:22:26;21.10;75.20
74511;DHT22;62991;50.040;18.400;2023-07-13T01:25:27;21.20;73.90
74511;DHT22;62991;50.040;18.400;2023-07-13T01:28:28;21.30;73.20
74511;DHT22;62991;50.040;18.400;2023-07-13T01:31:29;21.30;72.80
74511;DHT22;62991;50.040;18.400;2023-07-13T01:34:29;21.40;72.60
74511;DHT22;62991;50.040;18.400;2023-07-13T01:37:30;21.60;71.80
74511;DHT22;62991;50.040;18.400;2023-07-13T01:40:35;21.70;71.80
74511;DHT22;62991;50.040;18.400;2023-07-13T01:43:36;21.90;72.00
74511;DHT22;62991;50.040;18.400;2023-07-13T01:46:36;22.10;72.20
74511;DHT22;62991;50.040;18.400;2023-07-13T01:49:37;22.10;72.40
74511;DHT22;62991;50.040;18.400;2023-07-13T01:52:38;22.10;72.50
74511;DHT22;62991;50.040;18.400;2023-07-13T01:55:39;22.20;72.40
74511;DHT22;62991;50.040;18.400;2023-07-13T01:58:40;22.20;72.70
74511;DHT22;62991;50.040;18.400;2023-07-13T02:01:40;22.20;72.70
74511;DHT22;62991;50.040;18.400;2023-07-13T02:04:41;22.20;72.70
74511;DHT22;62991;50.040;18.400;2023-07-13T02:07:42;22.30;72.60
74511;DHT22;62991;50.040;18.400;2023-07-13T02:10:43;22.20;72.90
74511;DHT22;62991;50.040;18.400;2023-07-13T02:13:43;22.30;72.90
74511;DHT22;62991;50.040;18.400;2023-07-13T02:16:44;22.30;72.70
74511;DHT22;62991;50.040;18.400;2023-07-13T02:19:45;22.20;72.70
74511;DHT22;62991;50.040;18.400;2023-07-13T02:22:46;22.30;72.50
74511;DHT22;62991;50.040;18.400;2023-07-13T02:25:46;22.20;72.60
74511;DHT22;62991;50.040;18.400;2023-07-13T02:28:47;22.20;72.40
74511;DHT22;62991;50.040;18.400;2023-07-13T02:31:48;22.20;72.60
74511;DHT22;62991;50.040;18.400;2023-07-13T02:34:48;22.30;72.00
74511;DHT22;62991;50.040;18.400;2023-07-13T02:37:49;22.20;72.40
74511;DHT22;62991;50.040;18.400;2023-07-13T02:40:50;22.10;72.50
74511;DHT22;62991;50.040;18.400;2023-07-13T02:43:51;22.20;72.40
74511;DHT22;62991;50.040;18.400;2023-07-13T02:46:52;22.20;72.20
74511;DHT22;62991;50.040;18.400;2023-07-13T02:49:53;22.30;72.20
74511;DHT22;62991;50.040;18.400;2023-07-13T02:52:53;22.30;72.00
74511;DHT22;62991;50.040;18.400;2023-07-13T02:55:54;22.30;71.90
74511;DHT22;62991;50.040;18.400;2023-07-13T02:58:55;22.40;72.00
74511;DHT22;62991;50.040;18.400;2023-07-13T03:01:56;22.40;71.40
74511;DHT22;62991;50.040;18.400;2023-07-13T03:04:57;22.30;72.50
74511;DHT22;62991;50.040;18.400;2023-07-13T03:07:58;22.30;72.10
74511;DHT22;62991;50.040;18.400;2023-07-13T03:11:03;22.40;72.20
74511;DHT22;62991;50.040;18.400;2023-07-13T03:14:04;22.40;72.20
74511;DHT22;62991;50.040;18.400;2023-07-13T03:17:05;22.40;71.80
74511;DHT22;62991;50.040;18.400;2023-07-13T03:20:06;22.50;71.80
74511;DHT22;62991;50.040;18.400;2023-07-13T03:23:07;22.50;71.80
74511;DHT22;62991;50.040;18.400;2023-07-13T03:26:13;22.50;71.50
74511;DHT22;62991;50.040;18.400;2023-07-13T03:29:14;22.60;71.40
74511;DHT22;62991;50.040;18.400;2023-07-13T03:32:16;22.60;71.20
74511;DHT22;62991;50.040;18.400;2023-07-13T03:35:16;22.70;71.10
74511;DHT22;62991;50.040;18.400;2023-07-13T03:38:17;22.70;71.00
74511;DHT22;62991;50.040;18.400;2023-07-13T03:41:18;22.70;71.20
74511;DHT22;62991;50.040;18.400;2023-07-13T03:44:19;22.70;70.80
74511;DHT22;62991;50.040;18.400;2023-07-13T03:47:20;22.80;70.60
74511;DHT22;62991;50.040;18.400;2023-07-13T03:50:21;22.80;70.60
74511;DHT22;62991;50.040;18.400;2023-07-13T03:53:21;22.80;70.50
74511;DHT22;62991;50.040;18.400;2023-07-13T03:56:22;22.80;70.30
74511;DHT22;62991;50.040;18.400;2023-07-13T03:59:23;22.70;70.10
74511;DHT22;62991;50.040;18.400;2023-07-13T04:02:23;22.70;69.90
74511;DHT22;62991;50.040;18.400;2023-07-13T04:05:24;22.10;71.60
74511;DHT22;62991;50.040;18.400;2023-07-13T04:08:35;22.00;72.50
74511;DHT22;62991;50.040;18.400;2023-07-13T04:11:36;22.20;71.80
74511;DHT22;62991;50.040;18.400;2023-07-13T04:14:37;22.10;72.40
74511;DHT22;62991;50.040;18.400;2023-07-13T04:17:38;21.90;73.20
74511;DHT22;62991;50.040;18.400;2023-07-13T04:20:38;22.10;73.00
74511;DHT22;62991;50.040;18.400;2023-07-13T04:23:39;22.00;73.40
74511;DHT22;62991;50.040;18.400;2023-07-13T04:26:40;22.10;73.00
74511;DHT22;62991;50.040;18.400;2023-07-13T04:29:41;22.30;72.40
74511;DHT22;62991;50.040;18.400;2023-07-13T04:32:42;22.30;72.60
74511;DHT22;62991;50.040;18.400;2023-07-13T04:35:43;22.50;72.20
74511;DHT22;62991;50.040;18.400;2023-07-13T04:38:47;22.20;72.60
74511;DHT22;62991;50.040;18.400;2023-07-13T04:41:47;22.30;72.90
74511;DHT22;62991;50.040;18.400;2023-07-13T04:44:49;22.50;72.40
74511;DHT22;62991;50.040;18.400;2023-07-13T04:47:50;22.60;72.60
74511;DHT22;62991;50.040;18.400;2023-07-13T04:50:56;22.70;72.10
74511;DHT22;62991;50.040;18.400;2023-07-13T04:53:57;22.70;71.60
74511;DHT22;62991;50.040;18.400;2023-07-13T04:56:58;22.80;71.40
74511;DHT22;62991;50.040;18.400;2023-07-13T04:59:58;22.80;71.00
74511;DHT22;62991;50.040;18.400;2023-07-13T05:03:02;22.90;70.90
74511;DHT22;62991;50.040;18.400;2023-07-13T05:06:06;22.80;71.30
74511;DHT22;62991;50.040;18.400;2023-07-13T05:09:07;22.90;71.30
74511;DHT22;62991;50.040;18.400;2023-07-13T05:12:09;23.00;71.10
74511;DHT22;62991;50.040;18.400;2023-07-13T05:15:10;23.10;70.90
74511;DHT22;62991;50.040;18.400;2023-07-13T05:18:11;23.10;71.00
74511;DHT22;62991;50.040;18.400;2023-07-13T05:21:12;23.10;71.10
74511;DHT22;62991;50.040;18.400;2023-07-13T05:24:13;23.10;71.40
74511;DHT22;62991;50.040;18.400;2023-07-13T05:27:13;23.10;71.70
74511;DHT22;62991;50.040;18.400;2023-07-13T05:30:14;23.20;71.90
74511;DHT22;62991;50.040;18.400;2023-07-13T05:33:15;23.30;71.20
74511;DHT22;62991;50.040;18.400;2023-07-13T05:36:15;23.30;71.20
74511;DHT22;62991;50.040;18.400;2023-07-13T05:39:16;23.20;71.70
74511;DHT22;62991;50.040;18.400;2023-07-13T05:42:17;23.10;72.20
74511;DHT22;62991;50.040;18.400;2023-07-13T05:45:18;23.20;72.70
74511;DHT22;62991;50.040;18.400;2023-07-13T05:48:18;23.20;72.40
74511;DHT22;62991;50.040;18.400;2023-07-13T05:51:19;23.30;72.50
74511;DHT22;62991;50.040;18.400;2023-07-13T05:54:20;23.30;72.40
74511;DHT22;62991;50.040;18.400;2023-07-13T05:57:20;23.30;72.20
74511;DHT22;62991;50.040;18.400;2023-07-13T06:00:21;23.20;70.90
74511;DHT22;62991;50.040;18.400;2023-07-13T06:03:22;23.10;72.00
74511;DHT22;62991;50.040;18.400;2023-07-13T06:06:23;23.20;72.20
74511;DHT22;62991;50.040;18.400;2023-07-13T06:09:23;23.20;72.50
74511;DHT22;62991;50.040;18.400;2023-07-13T06:12:24;23.30;72.60
74511;DHT22;62991;50.040;18.400;2023-07-13T06:15:25;23.30;72.10
74511;DHT22;62991;50.040;18.400;2023-07-13T06:18:26;23.30;72.10
74511;DHT22;62991;50.040;18.400;2023-07-13T06:21:26;23.30;72.40
74511;DHT22;62991;50.040;18.400;2023-07-13T06:24:27;23.30;72.00
74511;DHT22;62991;50.040;18.400;2023-07-13T06:27:28;23.30;72.20
74511;DHT22;62991;50.040;18.400;2023-07-13T06:30:29;23.30;72.50
74511;DHT22;62991;50.040;18.400;2023-07-13T06:33:29;23.40;72.30
74511;DHT22;62991;50.040;18.400;2023-07-13T06:36:30;23.40;72.30
74511;DHT22;62991;50.040;18.400;2023-07-13T06:39:31;23.40;72.30
74511;DHT22;62991;50.040;18.400;2023-07-13T06:42:31;23.40;72.20
74511;DHT22;62991;50.040;18.400;2023-07-13T06:45:39;23.40;71.80
74511;DHT22;62991;50.040;18.400;2023-07-13T06:48:40;23.40;72.70
74511;DHT22;62991;50.040;18.400;2023-07-13T06:51:41;23.40;72.50
74511;DHT22;62991;50.040;18.400;2023-07-13T06:54:41;23.20;71.60
74511;DHT22;62991;50.040;18.400;2023-07-13T06:57:42;23.10;71.50
74511;DHT22;62991;50.040;18.400;2023-07-13T07:00:43;23.10;71.50
74511;DHT22;62991;50.040;18.400;2023-07-13T07:03:43;23.10;72.30
74511;DHT22;62991;50.040;18.400;2023-07-13T07:06:44;23.00;72.30
74511;DHT22;62991;50.040;18.400;2023-07-13T07:09:46;22.90;72.10
74511;DHT22;62991;50.040;18.400;2023-07-13T07:12:47;23.00;72.40
74511;DHT22;62991;50.040;18.400;2023-07-13T07:15:47;23.00;72.50
74511;DHT22;62991;50.040;18.400;2023-07-13T07:18:50;23.10;72.40
74511;DHT22;62991;50.040;18.400;2023-07-13T07:21:50;22.80;73.30
74511;DHT22;62991;50.040;18.400;2023-07-13T07:24:51;22.70;73.40
74511;DHT22;62991;50.040;18.400;2023-07-13T07:27:51;22.70;73.70
74511;DHT22;62991;50.040;18.400;2023-07-13T07:30:53;22.60;73.90
74511;DHT22;62991;50.040;18.400;2023-07-13T07:33:54;22.50;74.90
74511;DHT22;62991;50.040;18.400;2023-07-13T07:36:56;22.50;75.00
74511;DHT22;62991;50.040;18.400;2023-07-13T07:39:57;22.60;74.40
74511;DHT22;62991;50.040;18.400;2023-07-13T07:42:59;22.60;73.80
74511;DHT22;62991;50.040;18.400;2023-07-13T07:46:00;22.70;73.40
74511;DHT22;62991;50.040;18.400;2023-07-13T07:49:00;22.80;74.10
74511;DHT22;62991;50.040;18.400;2023-07-13T07:52:01;22.90;73.30
74511;DHT22;62991;50.040;18.400;2023-07-13T07:55:04;22.80;72.60
74511;DHT22;62991;50.040;18.400;2023-07-13T07:58:05;22.70;72.70
74511;DHT22;62991;50.040;18.400;2023-07-13T08:01:06;22.80;72.50
74511;DHT22;62991;50.040;18.400;2023-07-13T08:04:07;22.80;71.80
74511;DHT22;62991;50.040;18.400;2023-07-13T08:07:08;22.60;72.10
74511;DHT22;62991;50.040;18.400;2023-07-13T08:10:08;22.60;72.20
74511;DHT22;62991;50.040;18.400;2023-07-13T08:13:09;22.60;72.50
74511;DHT22;62991;50.040;18.400;2023-07-13T08:16:10;22.40;71.50
74511;DHT22;62991;50.040;18.400;2023-07-13T08:19:12;22.30;72.20
74511;DHT22;62991;50.040;18.400;2023-07-13T08:22:13;22.30;72.60
74511;DHT22;62991;50.040;18.400;2023-07-13T08:25:13;22.20;72.90
74511;DHT22;62991;50.040;18.400;2023-07-13T08:28:14;22.20;72.10
74511;DHT22;62991;50.040;18.400;2023-07-13T08:31:15;22.20;72.20
74511;DHT22;62991;50.040;18.400;2023-07-13T08:34:16;22.10;72.70
74511;DHT22;62991;50.040;18.400;2023-07-13T08:37:17;22.10;72.90
74511;DHT22;62991;50.040;18.400;2023-07-13T08:40:19;22.10;73.20
74511;DHT22;62991;50.040;18.400;2023-07-13T08:43:31;22.10;73.70
74511;DHT22;62991;50.040;18.400;2023-07-13T08:46:40;22.00;73.90
74511;DHT22;62991;50.040;18.400;2023-07-13T08:49:41;22.00;74.40
74511;DHT22;62991;50.040;18.400;2023-07-13T08:52:44;21.90;75.20
74511;DHT22;62991;50.040;18.400;2023-07-13T08:55:44;21.70;76.20
74511;DHT22;62991;50.040;18.400;2023-07-13T08:58:48;21.50;76.80
74511;DHT22;62991;50.040;18.400;2023-07-13T09:11:44;19.60;76.00
74511;DHT22;62991;50.040;18.400;2023-07-13T09:14:52;19.00;77.80
74511;DHT22;62991;50.040;18.400;2023-07-13T09:17:55;18.80;79.10
74511;DHT22;62991;50.040;18.400;2023-07-13T09:21:07;18.60;79.50
74511;DHT22;62991;50.040;18.400;2023-07-13T09:24:37;18.40;80.30
74511;DHT22;62991;50.040;18.400;2023-07-13T09:27:40;18.30;81.00
74511;DHT22;62991;50.040;18.400;2023-07-13T09:31:14;18.30;80.50
74511;DHT22;62991;50.040;18.400;2023-07-13T09:34:15;18.10;81.10
74511;DHT22;62991;50.040;18.400;2023-07-13T09:37:15;18.20;80.70
74511;DHT22;62991;50.040;18.400;2023-07-13T09:40:35;17.90;81.00
74511;DHT22;62991;50.040;18.400;2023-07-13T09:43:38;17.80;82.00
74511;DHT22;62991;50.040;18.400;2023-07-13T09:46:43;17.70;82.30
74511;DHT22;62991;50.040;18.400;2023-07-13T09:49:44;17.80;82.50
74511;DHT22;62991;50.040;18.400;2023-07-13T09:52:48;17.90;82.10
74511;DHT22;62991;50.040;18.400;2023-07-13T09:55:49;18.00;82.30
74511;DHT22;62991;50.040;18.400;2023-07-13T09:58:50;18.00;81.90
74511;DHT22;62991;50.040;18.400;2023-07-13T10:01:51;17.90;81.90
74511;DHT22;62991;50.040;18.400;2023-07-13T10:05:00;17.90;82.30
74511;DHT22;62991;50.040;18.400;2023-07-13T10:08:01;18.00;81.70
74511;DHT22;62991;50.040;18.400;2023-07-13T10:11:17;18.20;81.60
74511;DHT22;62991;50.040;18.400;2023-07-13T10:14:21;18.00;81.80
74511;DHT22;62991;50.040;18.400;2023-07-13T10:17:29;18.20;81.40
74511;DHT22;62991;50.040;18.400;2023-07-13T10:20:31;18.30;81.30
74511;DHT22;62991;50.040;18.400;2023-07-13T10:23:33;18.50;80.40
74511;DHT22;62991;50.040;18.400;2023-07-13T10:26:34;18.50;80.00
74511;DHT22;62991;50.040;18.400;2023-07-13T10:29:44;18.60;80.20
74511;DHT22;62991;50.040;18.400;2023-07-13T10:32:46;18.70;79.80
74511;DHT22;62991;50.040;18.400;2023-07-13T10:35:48;18.70;79.90
74511;DHT22;62991;50.040;18.400;2023-07-13T10:38:52;19.00;79.90
74511;DHT22;62991;50.040;18.400;2023-07-13T10:42:03;19.20;79.00
74511;DHT22;62991;50.040;18.400;2023-07-13T10:45:20;19.30;78.30
74511;DHT22;62991;50.040;18.400;2023-07-13T10:48:22;19.60;77.80
74511;DHT22;62991;50.040;18.400;2023-07-13T10:51:24;19.50;77.90
74511;DHT22;62991;50.040;18.400;2023-07-13T10:54:32;19.80;77.60
74511;DHT22;62991;50.040;18.400;2023-07-13T10:57:42;19.80;76.60
74511;DHT22;62991;50.040;18.400;2023-07-13T11:01:08;20.00;76.40
74511;DHT22;62991;50.040;18.400;2023-07-13T11:04:12;20.20;76.60
74511;DHT22;62991;50.040;18.400;2023-07-13T11:07:26;20.20;76.00
74511;DHT22;62991;50.040;18.400;2023-07-13T11:16:48;21.10;73.90
74511;DHT22;62991;50.040;18.400;2023-07-13T11:19:51;20.90;73.20
74511;DHT22;62991;50.040;18.400;2023-07-13T11:23:07;20.90;73.80
74511;DHT22;62991;50.040;18.400;2023-07-13T11:29:48;21.40;71.50
74511;DHT22;62991;50.040;18.400;2023-07-13T11:32:51;21.40;71.60
74511;DHT22;62991;50.040;18.400;2023-07-13T11:36:04;21.30;72.20
74511;DHT22;62991;50.040;18.400;2023-07-13T11:39:18;21.20;70.80
74511;DHT22;62991;50.040;18.400;2023-07-13T11:42:21;20.90;70.50
74511;DHT22;62991;50.040;18.400;2023-07-13T11:45:22;20.90;72.40
74511;DHT22;62991;50.040;18.400;2023-07-13T11:48:29;20.80;72.30
74511;DHT22;62991;50.040;18.400;2023-07-13T11:51:33;21.10;71.70
74511;DHT22;62991;50.040;18.400;2023-07-13T11:54:47;21.30;71.30
74511;DHT22;62991;50.040;18.400;2023-07-13T11:57:56;21.60;70.90
74511;DHT22;62991;50.040;18.400;2023-07-13T12:00:59;21.70;70.90
74511;DHT22;62991;50.040;18.400;2023-07-13T12:04:03;21.90;70.60
74511;DHT22;62991;50.040;18.400;2023-07-13T12:07:07;22.20;69.70
74511;DHT22;62991;50.040;18.400;2023-07-13T12:10:32;22.50;68.50
74511;DHT22;62991;50.040;18.400;2023-07-13T12:13:37;22.50;67.50
74511;DHT22;62991;50.040;18.400;2023-07-13T12:16:39;22.50;67.60
74511;DHT22;62991;50.040;18.400;2023-07-13T12:19:41;22.70;66.90
74511;DHT22;62991;50.040;18.400;2023-07-13T12:22:46;22.70;67.10
74511;DHT22;62991;50.040;18.400;2023-07-13T12:25:47;22.30;66.90
74511;DHT22;62991;50.040;18.400;2023-07-13T12:28:53;22.20;67.30
74511;DHT22;62991;50.040;18.400;2023-07-13T12:31:57;22.10;68.60
74511;DHT22;62991;50.040;18.400;2023-07-13T12:35:15;22.30;68.30
74511;DHT22;62991;50.040;18.400;2023-07-13T12:38:16;22.00;67.30
74511;DHT22;62991;50.040;18.400;2023-07-13T12:41:17;21.80;68.90
74511;DHT22;62991;50.040;18.400;2023-07-13T12:44:26;21.80;69.10
74511;DHT22;62991;50.040;18.400;2023-07-13T12:47:28;22.00;68.80
74511;DHT22;62991;50.040;18.400;2023-07-13T12:50:41;21.90;68.40
74511;DHT22;62991;50.040;18.400;2023-07-13T12:53:48;22.10;67.80
74511;DHT22;62991;50.040;18.400;2023-07-13T12:56:50;22.00;68.50
74511;DHT22;62991;50.040;18.400;2023-07-13T12:59:54;21.90;67.70
74511;DHT22;62991;50.040;18.400;2023-07-13T13:02:56;21.80;69.10
74511;DHT22;62991;50.040;18.400;2023-07-13T13:09:03;21.70;68.90
74511;DHT22;62991;50.040;18.400;2023-07-13T13:12:09;21.80;69.10
74511;DHT22;62991;50.040;18.400;2023-07-13T13:15:11;21.80;68.50
74511;DHT22;62991;50.040;18.400;2023-07-13T13:18:19;21.60;68.20
74511;DHT22;62991;50.040;18.400;2023-07-13T13:21:20;21.50;69.00
74511;DHT22;62991;50.040;18.400;2023-07-13T13:24:23;21.60;68.70
74511;DHT22;62991;50.040;18.400;2023-07-13T13:27:24;21.50;68.90
74511;DHT22;62991;50.040;18.400;2023-07-13T13:30:25;21.20;69.80
74511;DHT22;62991;50.040;18.400;2023-07-13T13:33:25;21.50;69.60
74511;DHT22;62991;50.040;18.400;2023-07-13T13:36:26;21.90;68.30
74511;DHT22;62991;50.040;18.400;2023-07-13T13:39:34;22.60;66.90
74511;DHT22;62991;50.040;18.400;2023-07-13T13:42:35;22.70;65.90
74511;DHT22;62991;50.040;18.400;2023-07-13T13:45:36;22.80;66.60
74511;DHT22;62991;50.040;18.400;2023-07-13T13:48:36;22.70;66.80
74511;DHT22;62991;50.040;18.400;2023-07-13T13:51:37;22.80;66.30
74511;DHT22;62991;50.040;18.400;2023-07-13T13:54:38;23.00;67.50
74511;DHT22;62991;50.040;18.400;2023-07-13T13:57:38;22.90;66.10
74511;DHT22;62991;50.040;18.400;2023-07-13T14:00:39;22.80;66.90
74511;DHT22;62991;50.040;18.400;2023-07-13T14:03:40;22.80;67.30
74511;DHT22;62991;50.040;18.400;2023-07-13T14:06:41;23.00;67.10
74511;DHT22;62991;50.040;18.400;2023-07-13T14:09:42;23.00;65.90
74511;DHT22;62991;50.040;18.400;2023-07-13T14:12:44;23.00;64.80
74511;DHT22;62991;50.040;18.400;2023-07-13T14:15:46;23.10;65.60
74511;DHT22;62991;50.040;18.400;2023-07-13T14:18:48;22.90;65.90
74511;DHT22;62991;50.040;18.400;2023-07-13T14:21:49;22.80;66.60
74511;DHT22;62991;50.040;18.400;2023-07-13T14:24:51;23.00;67.40
74511;DHT22;62991;50.040;18.400;2023-07-13T14:27:56;23.00;66.60
74511;DHT22;62991;50.040;18.400;2023-07-13T14:30:59;23.10;66.50
74511;DHT22;62991;50.040;18.400;2023-07-13T14:33:59;23.20;66.60
74511;DHT22;62991;50.040;18.400;2023-07-13T14:37:00;23.50;66.60
74511;DHT22;62991;50.040;18.400;2023-07-13T14:40:01;23.60;66.20
74511;DHT22;62991;50.040;18.400;2023-07-13T14:43:01;23.70;64.80
74511;DHT22;62991;50.040;18.400;2023-07-13T14:46:03;24.20;65.00
74511;DHT22;62991;50.040;18.400;2023-07-13T14:50:00;24.50;64.40
74511;DHT22;62991;50.040;18.400;2023-07-13T14:52:36;24.60;63.50
74511;DHT22;62991;50.040;18.400;2023-07-13T14:55:36;24.30;63.90
74511;DHT22;62991;50.040;18.400;2023-07-13T14:58:37;24.10;64.00
74511;DHT22;62991;50.040;18.400;2023-07-13T15:01:41;24.20;65.20
74511;DHT22;62991;50.040;18.400;2023-07-13T15:04:42;24.30;63.50
74511;DHT22;62991;50.040;18.400;2023-07-13T15:07:44;24.30;63.00
74511;DHT22;62991;50.040;18.400;2023-07-13T15:10:44;24.30;63.00
74511;DHT22;62991;50.040;18.400;2023-07-13T15:13:45;24.60;62.40
74511;DHT22;62991;50.040;18.400;2023-07-13T15:16:48;24.70;62.20
74511;DHT22;62991;50.040;18.400;2023-07-13T15:19:49;24.70;62.10
74511;DHT22;62991;50.040;18.400;2023-07-13T15:22:50;24.80;61.80
74511;DHT22;62991;50.040;18.400;2023-07-13T15:25:51;25.00;63.60
74511;DHT22;62991;50.040;18.400;2023-07-13T15:28:52;25.40;63.80
74511;DHT22;62991;50.040;18.400;2023-07-13T15:31:53;25.50;62.30
74511;DHT22;62991;50.040;18.400;2023-07-13T15:34:54;25.20;58.70
74511;DHT22;62991;50.040;18.400;2023-07-13T15:37:55;24.90;59.50
74511;DHT22;62991;50.040;18.400;2023-07-13T15:40:56;24.90;59.90
74511;DHT22;62991;50.040;18.400;2023-07-13T15:43:58;24.80;60.30
74511;DHT22;62991;50.040;18.400;2023-07-13T15:47:00;24.90;60.50
74511;DHT22;62991;50.040;18.400;2023-07-13T15:50:01;24.80;61.00
74511;DHT22;62991;50.040;18.400;2023-07-13T15:53:01;24.50;61.10
74511;DHT22;62991;50.040;18.400;2023-07-13T15:56:16;24.40;61.60
74511;DHT22;62991;50.040;18.400;2023-07-13T15:59:17;24.30;63.00
74511;DHT22;62991;50.040;18.400;2023-07-13T16:02:20;24.60;62.70
74511;DHT22;62991;50.040;18.400;2023-07-13T16:05:23;24.80;60.50
74511;DHT22;62991;50.040;18.400;2023-07-13T16:08:27;24.90;61.00
74511;DHT22;62991;50.040;18.400;2023-07-13T16:11:36;25.00;61.50
74511;DHT22;62991;50.040;18.400;2023-07-13T16:14:38;25.10;60.80
74511;DHT22;62991;50.040;18.400;2023-07-13T16:17:39;25.00;60.60
74511;DHT22;62991;50.040;18.400;2023-07-13T16:20:41;25.00;61.30
74511;DHT22;62991;50.040;18.400;2023-07-13T16:23:43;25.10;60.60
74511;DHT22;62991;50.040;18.400;2023-07-13T16:26:45;25.30;61.10
74511;DHT22;62991;50.040;18.400;2023-07-13T16:29:46;25.30;61.10
74511;DHT22;62991;50.040;18.400;2023-07-13T16:32:47;25.40;59.40
74511;DHT22;62991;50.040;18.400;2023-07-13T16:35:47;25.30;56.80
74511;DHT22;62991;50.040;18.400;2023-07-13T16:38:48;25.10;57.20
74511;DHT22;62991;50.040;18.400;2023-07-13T16:41:52;25.20;57.00
74511;DHT22;62991;50.040;18.400;2023-07-13T16:44:54;25.10;58.50
74511;DHT22;62991;50.040;18.400;2023-07-13T16:47:57;25.20;59.30
74511;DHT22;62991;50.040;18.400;2023-07-13T16:50:58;25.20;58.80
74511;DHT22;62991;50.040;18.400;2023-07-13T16:53:59;25.30;57.50
74511;DHT22;62991;50.040;18.400;2023-07-13T16:57:02;25.30;59.00
74511;DHT22;62991;50.040;18.400;2023-07-13T17:00:30;25.30;57.10
74511;DHT22;62991;50.040;18.400;2023-07-13T17:03:32;25.30;60.10
74511;DHT22;62991;50.040;18.400;2023-07-13T17:06:33;25.30;57.10
74511;DHT22;62991;50.040;18.400;2023-07-13T17:09:34;25.00;57.40
74511;DHT22;62991;50.040;18.400;2023-07-13T17:12:35;25.00;57.70
74511;DHT22;62991;50.040;18.400;2023-07-13T17:15:36;24.80;58.50
74511;DHT22;62991;50.040;18.400;2023-07-13T17:18:37;24.70;58.40
74511;DHT22;62991;50.040;18.400;2023-07-13T17:21:37;24.70;60.20
74511;DHT22;62991;50.040;18.400;2023-07-13T17:24:39;24.80;60.20
74511;DHT22;62991;50.040;18.400;2023-07-13T17:27:40;24.70;59.00
74511;DHT22;62991;50.040;18.400;2023-07-13T17:30:43;24.50;59.20
74511;DHT22;62991;50.040;18.400;2023-07-13T17:33:45;24.40;60.30
74511;DHT22;62991;50.040;18.400;2023-07-13T17:36:47;24.60;60.40
74511;DHT22;62991;50.040;18.400;2023-07-13T17:39:48;24.70;60.50
74511;DHT22;62991;50.040;18.400;2023-07-13T17:42:50;24.60;60.30
74511;DHT22;62991;50.040;18.400;2023-07-13T17:45:55;24.70;60.60
74511;DHT22;62991;50.040;18.400;2023-07-13T17:48:56;24.80;60.60
74511;DHT22;62991;50.040;18.400;2023-07-13T17:51:58;24.80;60.40
74511;DHT22;62991;50.040;18.400;2023-07-13T17:55:00;24.80;60.00
74511;DHT22;62991;50.040;18.400;2023-07-13T17:58:03;24.80;60.10
74511;DHT22;62991;50.040;18.400;2023-07-13T18:01:06;24.80;60.40
74511;DHT22;62991;50.040;18.400;2023-07-13T18:04:15;24.70;60.30
74511;DHT22;62991;50.040;18.400;2023-07-13T18:07:16;24.70;60.50
74511;DHT22;62991;50.040;18.400;2023-07-13T18:10:19;24.60;60.70
74511;DHT22;62991;50.040;18.400;2023-07-13T18:13:24;24.60;60.60
74511;DHT22;62991;50.040;18.400;2023-07-13T18:16:28;24.50;61.00
74511;DHT22;62991;50.040;18.400;2023-07-13T18:19:33;24.40;60.90
74511;DHT22;62991;50.040;18.400;2023-07-13T18:22:35;24.30;61.20
74511;DHT22;62991;50.040;18.400;2023-07-13T18:25:36;24.20;61.50
74511;DHT22;62991;50.040;18.400;2023-07-13T18:28:37;24.20;61.80
74511;DHT22;62991;50.040;18.400;2023-07-13T18:31:38;24.10;61.80
74511;DHT22;62991;50.040;18.400;2023-07-13T18:34:40;24.10;62.30
74511;DHT22;62991;50.040;18.400;2023-07-13T18:37:43;24.10;62.20
74511;DHT22;62991;50.040;18.400;2023-07-13T18:40:45;24.00;62.90
74511;DHT22;62991;50.040;18.400;2023-07-13T18:43:47;23.90;63.10
74511;DHT22;62991;50.040;18.400;2023-07-13T18:46:50;23.80;63.30
74511;DHT22;62991;50.040;18.400;2023-07-13T18:49:51;23.80;63.50
74511;DHT22;62991;50.040;18.400;2023-07-13T18:52:56;23.70;63.40
74511;DHT22;62991;50.040;18.400;2023-07-13T18:55:57;23.70;64.00
74511;DHT22;62991;50.040;18.400;2023-07-13T18:58:58;23.60;63.70
74511;DHT22;62991;50.040;18.400;2023-07-13T19:01:58;23.50;64.10
74511;DHT22;62991;50.040;18.400;2023-07-13T19:04:59;23.50;64.10
74511;DHT22;62991;50.040;18.400;2023-07-13T19:08:01;23.40;63.70
74511;DHT22;62991;50.040;18.400;2023-07-13T19:11:04;23.40;63.80
74511;DHT22;62991;50.040;18.400;2023-07-13T19:14:13;23.30;63.90
74511;DHT22;62991;50.040;18.400;2023-07-13T19:17:16;23.30;64.10
74511;DHT22;62991;50.040;18.400;2023-07-13T19:20:18;23.20;64.00
74511;DHT22;62991;50.040;18.400;2023-07-13T19:23:31;23.20;63.90
74511;DHT22;62991;50.040;18.400;2023-07-13T19:26:39;23.20;64.10
74511;DHT22;62991;50.040;18.400;2023-07-13T19:29:41;23.20;64.20